Search for airport 
image banner adimage banner adimage banner ad
image banner ad

O02 - Nervino

Located in Beckwourth, United States

ICAO - O02, IATA -

Data provided by Airmate  

General information

Coordinates: N39°49'7" W120°21'10"
Elevation is 4900 feet MSL.
Magnetic variation is 14° East
View others Airports in California

Operational data

Special qualification required
Current time UTC:
Current local time:
Weather at : KRTS - Reno/Stead ( 44 km )
METAR: KRTS 240815Z AUTO VRB03KT 10SM OVC100 17/07 A3018 RMK AO2
View NOTAMs / SUP AIP / TFR affecting this airport [VIEW]
Communications frequencies: [VIEW]

Runways:

RWY identifierQFULength (ft)Width (ft)SurfaceLDA (ft)
0890°465175ASPH
26270°465175ASPH

Airport contact information

Address: Beckwourth United States

Satellite view of O02